sensor_id;sensor_type;location;lat;lon;timestamp;P1;durP1;ratioP1;P2;durP2;ratioP2
9815;SDS011;4947;44.526;11.360;2023-03-20T00:00:21;33.40;;;22.13;;
9815;SDS011;4947;44.526;11.360;2023-03-20T00:02:54;34.90;;;23.05;;
9815;SDS011;4947;44.526;11.360;2023-03-20T00:05:25;38.22;;;23.52;;
9815;SDS011;4947;44.526;11.360;2023-03-20T00:07:54;34.97;;;23.67;;
9815;SDS011;4947;44.526;11.360;2023-03-20T00:10:23;31.20;;;20.58;;
9815;SDS011;4947;44.526;11.360;2023-03-20T00:12:55;32.40;;;21.40;;
9815;SDS011;4947;44.526;11.360;2023-03-20T00:15:24;30.65;;;19.42;;
9815;SDS011;4947;44.526;11.360;2023-03-20T00:17:54;27.40;;;19.70;;
9815;SDS011;4947;44.526;11.360;2023-03-20T00:20:21;31.08;;;19.98;;
9815;SDS011;4947;44.526;11.360;2023-03-20T00:22:49;27.15;;;19.23;;
9815;SDS011;4947;44.526;11.360;2023-03-20T00:25:18;34.13;;;20.10;;
9815;SDS011;4947;44.526;11.360;2023-03-20T00:27:47;29.35;;;19.77;;
9815;SDS011;4947;44.526;11.360;2023-03-20T00:30:17;28.65;;;18.98;;
9815;SDS011;4947;44.526;11.360;2023-03-20T00:32:50;26.27;;;18.60;;
9815;SDS011;4947;44.526;11.360;2023-03-20T00:35:19;26.20;;;17.98;;
9815;SDS011;4947;44.526;11.360;2023-03-20T00:37:49;31.30;;;19.25;;
9815;SDS011;4947;44.526;11.360;2023-03-20T00:40:18;27.13;;;18.33;;
9815;SDS011;4947;44.526;11.360;2023-03-20T00:42:46;26.40;;;18.23;;
9815;SDS011;4947;44.526;11.360;2023-03-20T00:45:18;30.60;;;19.38;;
9815;SDS011;4947;44.526;11.360;2023-03-20T00:47:48;24.17;;;17.33;;
9815;SDS011;4947;44.526;11.360;2023-03-20T00:50:18;27.08;;;19.40;;
9815;SDS011;4947;44.526;11.360;2023-03-20T00:52:47;24.50;;;17.27;;
9815;SDS011;4947;44.526;11.360;2023-03-20T00:55:16;24.63;;;17.08;;
9815;SDS011;4947;44.526;11.360;2023-03-20T00:57:45;24.95;;;17.50;;
9815;SDS011;4947;44.526;11.360;2023-03-20T01:00:21;30.00;;;20.42;;
9815;SDS011;4947;44.526;11.360;2023-03-20T01:02:54;26.25;;;18.25;;
9815;SDS011;4947;44.526;11.360;2023-03-20T01:05:24;29.85;;;18.42;;
9815;SDS011;4947;44.526;11.360;2023-03-20T01:07:53;30.02;;;19.75;;
9815;SDS011;4947;44.526;11.360;2023-03-20T01:10:20;28.92;;;19.67;;
9815;SDS011;4947;44.526;11.360;2023-03-20T01:12:52;27.83;;;18.85;;
9815;SDS011;4947;44.526;11.360;2023-03-20T01:15:31;26.63;;;17.83;;
9815;SDS011;4947;44.526;11.360;2023-03-20T01:17:59;29.58;;;19.90;;
9815;SDS011;4947;44.526;11.360;2023-03-20T01:20:29;29.85;;;18.98;;
9815;SDS011;4947;44.526;11.360;2023-03-20T01:22:57;25.52;;;17.80;;
9815;SDS011;4947;44.526;11.360;2023-03-20T01:25:24;24.75;;;18.52;;
9815;SDS011;4947;44.526;11.360;2023-03-20T01:27:52;29.52;;;19.35;;
9815;SDS011;4947;44.526;11.360;2023-03-20T01:30:22;29.70;;;18.02;;
9815;SDS011;4947;44.526;11.360;2023-03-20T01:32:53;32.83;;;19.25;;
9815;SDS011;4947;44.526;11.360;2023-03-20T01:35:26;30.55;;;19.27;;
9815;SDS011;4947;44.526;11.360;2023-03-20T01:37:54;27.67;;;19.27;;
9815;SDS011;4947;44.526;11.360;2023-03-20T01:40:26;29.10;;;18.05;;
9815;SDS011;4947;44.526;11.360;2023-03-20T01:42:59;29.65;;;20.35;;
9815;SDS011;4947;44.526;11.360;2023-03-20T01:45:31;29.08;;;19.75;;
9815;SDS011;4947;44.526;11.360;2023-03-20T01:48:08;31.67;;;20.27;;
9815;SDS011;4947;44.526;11.360;2023-03-20T01:50:40;28.55;;;19.65;;
9815;SDS011;4947;44.526;11.360;2023-03-20T01:53:11;30.83;;;20.95;;
9815;SDS011;4947;44.526;11.360;2023-03-20T01:55:42;34.30;;;19.73;;
9815;SDS011;4947;44.526;11.360;2023-03-20T01:58:13;33.35;;;19.92;;
9815;SDS011;4947;44.526;11.360;2023-03-20T02:00:44;33.13;;;19.67;;
9815;SDS011;4947;44.526;11.360;2023-03-20T02:03:14;26.83;;;18.33;;
9815;SDS011;4947;44.526;11.360;2023-03-20T02:05:44;30.17;;;19.55;;
9815;SDS011;4947;44.526;11.360;2023-03-20T02:08:16;27.70;;;17.98;;
9815;SDS011;4947;44.526;11.360;2023-03-20T02:10:48;26.00;;;17.75;;
9815;SDS011;4947;44.526;11.360;2023-03-20T02:13:16;27.50;;;16.55;;
9815;SDS011;4947;44.526;11.360;2023-03-20T02:15:55;24.77;;;16.75;;
9815;SDS011;4947;44.526;11.360;2023-03-20T02:18:26;26.45;;;17.48;;
9815;SDS011;4947;44.526;11.360;2023-03-20T02:20:59;27.98;;;17.05;;
9815;SDS011;4947;44.526;11.360;2023-03-20T02:24:03;28.75;;;16.52;;
9815;SDS011;4947;44.526;11.360;2023-03-20T02:27:00;27.50;;;18.15;;
9815;SDS011;4947;44.526;11.360;2023-03-20T02:29:46;26.58;;;17.70;;
9815;SDS011;4947;44.526;11.360;2023-03-20T02:35:53;28.83;;;17.10;;
9815;SDS011;4947;44.526;11.360;2023-03-20T02:41:31;30.05;;;18.73;;
9815;SDS011;4947;44.526;11.360;2023-03-20T02:44:05;26.00;;;16.42;;
9815;SDS011;4947;44.526;11.360;2023-03-20T02:46:41;27.13;;;15.95;;
9815;SDS011;4947;44.526;11.360;2023-03-20T02:49:17;24.45;;;16.77;;
9815;SDS011;4947;44.526;11.360;2023-03-20T02:51:54;26.23;;;16.05;;
9815;SDS011;4947;44.526;11.360;2023-03-20T02:54:29;24.58;;;16.27;;
9815;SDS011;4947;44.526;11.360;2023-03-20T02:57:06;21.73;;;14.60;;
9815;SDS011;4947;44.526;11.360;2023-03-20T02:59:40;24.38;;;15.27;;
9815;SDS011;4947;44.526;11.360;2023-03-20T03:02:12;23.90;;;16.27;;
9815;SDS011;4947;44.526;11.360;2023-03-20T03:04:44;27.77;;;15.15;;
9815;SDS011;4947;44.526;11.360;2023-03-20T03:07:17;24.88;;;14.70;;
9815;SDS011;4947;44.526;11.360;2023-03-20T03:09:50;26.13;;;16.75;;
9815;SDS011;4947;44.526;11.360;2023-03-20T03:12:20;26.42;;;16.67;;
9815;SDS011;4947;44.526;11.360;2023-03-20T03:14:51;23.42;;;15.63;;
9815;SDS011;4947;44.526;11.360;2023-03-20T03:17:22;24.70;;;16.77;;
9815;SDS011;4947;44.526;11.360;2023-03-20T03:19:53;25.40;;;16.65;;
9815;SDS011;4947;44.526;11.360;2023-03-20T03:22:24;29.85;;;16.92;;
9815;SDS011;4947;44.526;11.360;2023-03-20T03:24:53;30.67;;;17.33;;
9815;SDS011;4947;44.526;11.360;2023-03-20T03:27:21;29.55;;;18.33;;
9815;SDS011;4947;44.526;11.360;2023-03-20T03:29:52;26.30;;;16.60;;
9815;SDS011;4947;44.526;11.360;2023-03-20T03:32:24;30.50;;;18.38;;
9815;SDS011;4947;44.526;11.360;2023-03-20T03:34:54;29.38;;;17.10;;
9815;SDS011;4947;44.526;11.360;2023-03-20T03:37:29;28.88;;;17.70;;
9815;SDS011;4947;44.526;11.360;2023-03-20T03:40:09;26.90;;;17.70;;
9815;SDS011;4947;44.526;11.360;2023-03-20T03:42:43;29.52;;;17.55;;
9815;SDS011;4947;44.526;11.360;2023-03-20T03:45:20;31.50;;;17.73;;
9815;SDS011;4947;44.526;11.360;2023-03-20T03:47:57;27.40;;;18.20;;
9815;SDS011;4947;44.526;11.360;2023-03-20T03:50:28;31.05;;;18.58;;
9815;SDS011;4947;44.526;11.360;2023-03-20T03:53:02;29.27;;;18.42;;
9815;SDS011;4947;44.526;11.360;2023-03-20T03:55:36;26.13;;;17.35;;
9815;SDS011;4947;44.526;11.360;2023-03-20T03:58:07;29.55;;;17.90;;
9815;SDS011;4947;44.526;11.360;2023-03-20T04:00:38;28.27;;;18.23;;
9815;SDS011;4947;44.526;11.360;2023-03-20T04:03:11;31.73;;;19.25;;
9815;SDS011;4947;44.526;11.360;2023-03-20T04:05:41;33.58;;;19.08;;
9815;SDS011;4947;44.526;11.360;2023-03-20T04:08:12;32.92;;;19.60;;
9815;SDS011;4947;44.526;11.360;2023-03-20T04:10:42;33.63;;;19.02;;
9815;SDS011;4947;44.526;11.360;2023-03-20T04:13:10;39.65;;;20.17;;
9815;SDS011;4947;44.526;11.360;2023-03-20T04:15:37;40.55;;;21.17;;
9815;SDS011;4947;44.526;11.360;2023-03-20T04:18:04;37.22;;;20.40;;
9815;SDS011;4947;44.526;11.360;2023-03-20T04:20:35;38.38;;;20.05;;
9815;SDS011;4947;44.526;11.360;2023-03-20T04:23:02;36.65;;;21.10;;
9815;SDS011;4947;44.526;11.360;2023-03-20T04:25:29;38.83;;;20.77;;
9815;SDS011;4947;44.526;11.360;2023-03-20T04:27:58;38.17;;;23.10;;
9815;SDS011;4947;44.526;11.360;2023-03-20T04:30:26;37.78;;;21.95;;
9815;SDS011;4947;44.526;11.360;2023-03-20T04:32:53;39.22;;;21.35;;
9815;SDS011;4947;44.526;11.360;2023-03-20T04:35:21;37.33;;;21.95;;
9815;SDS011;4947;44.526;11.360;2023-03-20T04:37:48;37.33;;;21.17;;
9815;SDS011;4947;44.526;11.360;2023-03-20T04:40:16;38.90;;;22.13;;
9815;SDS011;4947;44.526;11.360;2023-03-20T04:42:44;39.72;;;21.55;;
9815;SDS011;4947;44.526;11.360;2023-03-20T04:45:13;42.45;;;23.48;;
9815;SDS011;4947;44.526;11.360;2023-03-20T04:47:41;40.97;;;21.38;;
9815;SDS011;4947;44.526;11.360;2023-03-20T04:50:09;44.22;;;23.50;;
9815;SDS011;4947;44.526;11.360;2023-03-20T04:52:38;39.35;;;22.40;;
9815;SDS011;4947;44.526;11.360;2023-03-20T04:55:05;38.78;;;21.98;;
9815;SDS011;4947;44.526;11.360;2023-03-20T04:57:33;41.38;;;22.00;;
9815;SDS011;4947;44.526;11.360;2023-03-20T05:00:01;40.75;;;20.80;;
9815;SDS011;4947;44.526;11.360;2023-03-20T05:02:31;43.40;;;22.83;;
9815;SDS011;4947;44.526;11.360;2023-03-20T05:04:58;43.95;;;23.25;;
9815;SDS011;4947;44.526;11.360;2023-03-20T05:07:26;40.97;;;22.15;;
9815;SDS011;4947;44.526;11.360;2023-03-20T05:09:54;45.22;;;22.77;;
9815;SDS011;4947;44.526;11.360;2023-03-20T05:12:21;41.70;;;22.17;;
9815;SDS011;4947;44.526;11.360;2023-03-20T05:14:48;40.13;;;22.15;;
9815;SDS011;4947;44.526;11.360;2023-03-20T05:17:17;42.33;;;22.25;;
9815;SDS011;4947;44.526;11.360;2023-03-20T05:19:46;47.55;;;22.05;;
9815;SDS011;4947;44.526;11.360;2023-03-20T05:22:13;41.58;;;22.75;;
9815;SDS011;4947;44.526;11.360;2023-03-20T05:24:43;42.85;;;22.48;;
9815;SDS011;4947;44.526;11.360;2023-03-20T05:27:10;36.95;;;21.33;;
9815;SDS011;4947;44.526;11.360;2023-03-20T05:29:38;36.33;;;20.15;;
9815;SDS011;4947;44.526;11.360;2023-03-20T05:32:06;44.90;;;24.27;;
9815;SDS011;4947;44.526;11.360;2023-03-20T05:34:36;53.38;;;25.90;;
9815;SDS011;4947;44.526;11.360;2023-03-20T05:37:06;62.63;;;30.13;;
9815;SDS011;4947;44.526;11.360;2023-03-20T05:39:34;115.15;;;32.40;;
9815;SDS011;4947;44.526;11.360;2023-03-20T05:42:01;82.97;;;32.08;;
9815;SDS011;4947;44.526;11.360;2023-03-20T05:44:29;83.70;;;32.70;;
9815;SDS011;4947;44.526;11.360;2023-03-20T05:46:56;106.70;;;34.53;;
9815;SDS011;4947;44.526;11.360;2023-03-20T05:49:24;80.22;;;32.95;;
9815;SDS011;4947;44.526;11.360;2023-03-20T05:51:51;90.82;;;31.65;;
9815;SDS011;4947;44.526;11.360;2023-03-20T05:54:20;116.28;;;34.85;;
9815;SDS011;4947;44.526;11.360;2023-03-20T05:56:48;81.65;;;32.70;;
9815;SDS011;4947;44.526;11.360;2023-03-20T05:59:15;100.97;;;34.10;;
9815;SDS011;4947;44.526;11.360;2023-03-20T06:01:44;78.25;;;30.45;;
9815;SDS011;4947;44.526;11.360;2023-03-20T06:04:12;131.75;;;35.28;;
9815;SDS011;4947;44.526;11.360;2023-03-20T06:06:40;65.55;;;31.10;;
9815;SDS011;4947;44.526;11.360;2023-03-20T06:09:08;81.57;;;33.42;;
9815;SDS011;4947;44.526;11.360;2023-03-20T06:11:37;73.57;;;34.10;;
9815;SDS011;4947;44.526;11.360;2023-03-20T06:14:04;83.43;;;34.72;;
9815;SDS011;4947;44.526;11.360;2023-03-20T06:16:32;109.05;;;34.28;;
9815;SDS011;4947;44.526;11.360;2023-03-20T06:18:59;68.40;;;32.60;;
9815;SDS011;4947;44.526;11.360;2023-03-20T06:21:27;79.47;;;33.72;;
9815;SDS011;4947;44.526;11.360;2023-03-20T06:23:54;71.18;;;33.30;;
9815;SDS011;4947;44.526;11.360;2023-03-20T06:26:24;74.15;;;33.88;;
9815;SDS011;4947;44.526;11.360;2023-03-20T06:28:53;77.53;;;33.47;;
9815;SDS011;4947;44.526;11.360;2023-03-20T06:31:20;90.72;;;34.17;;
9815;SDS011;4947;44.526;11.360;2023-03-20T06:33:48;68.05;;;31.40;;
9815;SDS011;4947;44.526;11.360;2023-03-20T06:36:16;73.38;;;34.30;;
9815;SDS011;4947;44.526;11.360;2023-03-20T06:38:45;73.22;;;33.53;;
9815;SDS011;4947;44.526;11.360;2023-03-20T06:41:12;73.10;;;31.90;;
9815;SDS011;4947;44.526;11.360;2023-03-20T06:43:40;67.13;;;30.05;;
9815;SDS011;4947;44.526;11.360;2023-03-20T06:46:09;76.75;;;31.75;;
9815;SDS011;4947;44.526;11.360;2023-03-20T06:48:37;69.63;;;30.15;;
9815;SDS011;4947;44.526;11.360;2023-03-20T06:51:04;68.75;;;31.55;;
9815;SDS011;4947;44.526;11.360;2023-03-20T06:53:32;65.88;;;30.17;;
9815;SDS011;4947;44.526;11.360;2023-03-20T06:56:00;85.13;;;31.55;;
9815;SDS011;4947;44.526;11.360;2023-03-20T06:58:27;78.50;;;32.60;;
9815;SDS011;4947;44.526;11.360;2023-03-20T07:00:54;69.93;;;31.35;;
9815;SDS011;4947;44.526;11.360;2023-03-20T07:03:23;61.90;;;29.90;;
9815;SDS011;4947;44.526;11.360;2023-03-20T07:05:51;59.67;;;28.98;;
9815;SDS011;4947;44.526;11.360;2023-03-20T07:08:19;68.80;;;32.50;;
9815;SDS011;4947;44.526;11.360;2023-03-20T07:10:46;57.55;;;29.90;;
9815;SDS011;4947;44.526;11.360;2023-03-20T07:13:13;65.75;;;28.90;;
9815;SDS011;4947;44.526;11.360;2023-03-20T07:15:42;65.55;;;32.55;;
9815;SDS011;4947;44.526;11.360;2023-03-20T07:18:09;65.47;;;30.83;;
9815;SDS011;4947;44.526;11.360;2023-03-20T07:20:38;67.32;;;32.38;;
9815;SDS011;4947;44.526;11.360;2023-03-20T07:23:06;58.15;;;30.15;;
9815;SDS011;4947;44.526;11.360;2023-03-20T07:25:34;65.72;;;28.98;;
9815;SDS011;4947;44.526;11.360;2023-03-20T07:28:01;69.15;;;30.77;;
9815;SDS011;4947;44.526;11.360;2023-03-20T07:30:29;60.33;;;31.20;;
9815;SDS011;4947;44.526;11.360;2023-03-20T07:32:58;67.57;;;30.13;;
9815;SDS011;4947;44.526;11.360;2023-03-20T07:35:25;58.63;;;28.50;;
9815;SDS011;4947;44.526;11.360;2023-03-20T07:37:54;65.45;;;31.80;;
9815;SDS011;4947;44.526;11.360;2023-03-20T07:40:22;58.33;;;29.33;;
9815;SDS011;4947;44.526;11.360;2023-03-20T07:42:49;50.40;;;26.45;;
9815;SDS011;4947;44.526;11.360;2023-03-20T07:45:16;48.53;;;25.33;;
9815;SDS011;4947;44.526;11.360;2023-03-20T07:47:44;47.88;;;25.58;;
9815;SDS011;4947;44.526;11.360;2023-03-20T07:50:15;51.13;;;25.45;;
9815;SDS011;4947;44.526;11.360;2023-03-20T07:52:44;51.03;;;26.05;;
9815;SDS011;4947;44.526;11.360;2023-03-20T07:55:14;49.08;;;25.45;;
9815;SDS011;4947;44.526;11.360;2023-03-20T07:57:42;60.83;;;26.98;;
9815;SDS011;4947;44.526;11.360;2023-03-20T08:00:10;51.45;;;26.02;;
9815;SDS011;4947;44.526;11.360;2023-03-20T08:02:38;54.88;;;26.60;;
9815;SDS011;4947;44.526;11.360;2023-03-20T08:05:06;52.20;;;25.92;;
9815;SDS011;4947;44.526;11.360;2023-03-20T08:07:34;50.67;;;26.52;;
9815;SDS011;4947;44.526;11.360;2023-03-20T08:10:04;48.40;;;25.83;;
9815;SDS011;4947;44.526;11.360;2023-03-20T08:12:34;49.65;;;25.30;;
9815;SDS011;4947;44.526;11.360;2023-03-20T08:15:02;43.75;;;23.38;;
9815;SDS011;4947;44.526;11.360;2023-03-20T08:17:29;43.95;;;24.13;;
9815;SDS011;4947;44.526;11.360;2023-03-20T08:19:57;41.58;;;23.58;;
9815;SDS011;4947;44.526;11.360;2023-03-20T08:22:24;43.90;;;24.40;;
9815;SDS011;4947;44.526;11.360;2023-03-20T08:24:51;43.13;;;23.05;;
9815;SDS011;4947;44.526;11.360;2023-03-20T08:27:19;36.13;;;21.85;;
9815;SDS011;4947;44.526;11.360;2023-03-20T08:29:48;33.80;;;21.05;;
9815;SDS011;4947;44.526;11.360;2023-03-20T08:32:17;33.38;;;19.55;;
9815;SDS011;4947;44.526;11.360;2023-03-20T08:34:44;36.00;;;20.40;;
9815;SDS011;4947;44.526;11.360;2023-03-20T08:37:12;38.88;;;19.73;;
9815;SDS011;4947;44.526;11.360;2023-03-20T08:39:39;39.15;;;19.77;;
9815;SDS011;4947;44.526;11.360;2023-03-20T08:42:07;37.92;;;22.13;;
9815;SDS011;4947;44.526;11.360;2023-03-20T08:44:34;38.20;;;21.13;;
9815;SDS011;4947;44.526;11.360;2023-03-20T08:47:06;38.42;;;21.13;;
9815;SDS011;4947;44.526;11.360;2023-03-20T08:49:35;36.60;;;21.42;;
9815;SDS011;4947;44.526;11.360;2023-03-20T08:52:02;41.00;;;21.27;;
9815;SDS011;4947;44.526;11.360;2023-03-20T08:54:30;41.97;;;21.75;;
9815;SDS011;4947;44.526;11.360;2023-03-20T08:56:57;41.40;;;22.05;;
9815;SDS011;4947;44.526;11.360;2023-03-20T08:59:25;35.85;;;20.00;;
9815;SDS011;4947;44.526;11.360;2023-03-20T09:01:53;31.58;;;18.67;;
9815;SDS011;4947;44.526;11.360;2023-03-20T09:04:22;30.08;;;17.85;;
9815;SDS011;4947;44.526;11.360;2023-03-20T09:06:49;30.92;;;19.25;;
9815;SDS011;4947;44.526;11.360;2023-03-20T09:09:17;30.15;;;19.02;;
9815;SDS011;4947;44.526;11.360;2023-03-20T09:11:45;30.77;;;19.63;;
9815;SDS011;4947;44.526;11.360;2023-03-20T09:14:13;29.83;;;19.35;;
9815;SDS011;4947;44.526;11.360;2023-03-20T09:16:40;25.10;;;16.33;;
9815;SDS011;4947;44.526;11.360;2023-03-20T09:19:08;18.17;;;11.77;;
9815;SDS011;4947;44.526;11.360;2023-03-20T09:21:37;18.58;;;11.95;;
9815;SDS011;4947;44.526;11.360;2023-03-20T09:24:06;17.27;;;12.52;;
9815;SDS011;4947;44.526;11.360;2023-03-20T09:26:34;19.35;;;12.90;;
9815;SDS011;4947;44.526;11.360;2023-03-20T09:29:01;18.02;;;12.60;;
9815;SDS011;4947;44.526;11.360;2023-03-20T09:31:29;21.55;;;13.77;;
9815;SDS011;4947;44.526;11.360;2023-03-20T09:33:56;20.50;;;15.10;;
9815;SDS011;4947;44.526;11.360;2023-03-20T09:36:24;20.27;;;14.02;;
9815;SDS011;4947;44.526;11.360;2023-03-20T09:38:53;21.00;;;14.82;;
9815;SDS011;4947;44.526;11.360;2023-03-20T09:41:21;20.02;;;14.18;;
9815;SDS011;4947;44.526;11.360;2023-03-20T09:43:54;19.38;;;13.52;;
9815;SDS011;4947;44.526;11.360;2023-03-20T09:46:31;18.25;;;12.70;;
9815;SDS011;4947;44.526;11.360;2023-03-20T09:49:25;17.17;;;12.27;;
9815;SDS011;4947;44.526;11.360;2023-03-20T09:52:03;18.58;;;11.75;;
9815;SDS011;4947;44.526;11.360;2023-03-20T09:54:44;17.70;;;11.52;;
9815;SDS011;4947;44.526;11.360;2023-03-20T09:57:16;17.58;;;12.55;;
9815;SDS011;4947;44.526;11.360;2023-03-20T09:59:47;17.50;;;12.02;;
9815;SDS011;4947;44.526;11.360;2023-03-20T10:02:21;19.10;;;12.68;;
9815;SDS011;4947;44.526;11.360;2023-03-20T10:04:55;20.52;;;13.80;;
9815;SDS011;4947;44.526;11.360;2023-03-20T10:07:23;21.10;;;14.32;;
9815;SDS011;4947;44.526;11.360;2023-03-20T10:09:53;25.10;;;15.23;;
9815;SDS011;4947;44.526;11.360;2023-03-20T10:12:26;24.42;;;15.93;;
9815;SDS011;4947;44.526;11.360;2023-03-20T10:15:07;23.67;;;14.48;;
9815;SDS011;4947;44.526;11.360;2023-03-20T10:17:47;26.77;;;14.10;;
9815;SDS011;4947;44.526;11.360;2023-03-20T10:20:22;28.45;;;16.75;;
9815;SDS011;4947;44.526;11.360;2023-03-20T10:22:54;26.10;;;15.73;;
9815;SDS011;4947;44.526;11.360;2023-03-20T10:25:27;30.00;;;17.65;;
9815;SDS011;4947;44.526;11.360;2023-03-20T10:27:58;25.25;;;16.35;;
9815;SDS011;4947;44.526;11.360;2023-03-20T10:33:22;23.17;;;16.20;;
9815;SDS011;4947;44.526;11.360;2023-03-20T10:35:58;30.88;;;18.70;;
9815;SDS011;4947;44.526;11.360;2023-03-20T10:38:38;30.98;;;18.70;;
9815;SDS011;4947;44.526;11.360;2023-03-20T10:41:12;30.00;;;19.58;;
9815;SDS011;4947;44.526;11.360;2023-03-20T10:43:43;28.08;;;16.63;;
9815;SDS011;4947;44.526;11.360;2023-03-20T10:46:13;26.20;;;15.82;;
9815;SDS011;4947;44.526;11.360;2023-03-20T10:48:43;25.60;;;15.77;;
9815;SDS011;4947;44.526;11.360;2023-03-20T10:51:14;17.00;;;12.02;;
9815;SDS011;4947;44.526;11.360;2023-03-20T10:53:44;20.48;;;11.57;;
9815;SDS011;4947;44.526;11.360;2023-03-20T10:56:19;16.00;;;10.88;;
9815;SDS011;4947;44.526;11.360;2023-03-20T10:58:53;19.15;;;12.95;;
9815;SDS011;4947;44.526;11.360;2023-03-20T11:01:24;20.95;;;13.40;;
9815;SDS011;4947;44.526;11.360;2023-03-20T11:03:52;20.98;;;13.45;;
9815;SDS011;4947;44.526;11.360;2023-03-20T11:06:21;24.40;;;14.98;;
9815;SDS011;4947;44.526;11.360;2023-03-20T11:08:52;24.90;;;15.68;;
9815;SDS011;4947;44.526;11.360;2023-03-20T11:11:22;22.92;;;14.35;;
9815;SDS011;4947;44.526;11.360;2023-03-20T11:13:51;21.10;;;12.88;;
9815;SDS011;4947;44.526;11.360;2023-03-20T11:16:19;19.10;;;12.15;;
9815;SDS011;4947;44.526;11.360;2023-03-20T11:18:49;16.20;;;12.52;;
9815;SDS011;4947;44.526;11.360;2023-03-20T11:21:19;17.95;;;11.88;;
9815;SDS011;4947;44.526;11.360;2023-03-20T11:23:48;14.68;;;9.60;;
9815;SDS011;4947;44.526;11.360;2023-03-20T11:26:17;14.80;;;9.63;;
9815;SDS011;4947;44.526;11.360;2023-03-20T11:28:57;16.70;;;11.05;;
9815;SDS011;4947;44.526;11.360;2023-03-20T11:31:27;18.20;;;11.40;;
9815;SDS011;4947;44.526;11.360;2023-03-20T11:34:00;18.17;;;12.48;;
9815;SDS011;4947;44.526;11.360;2023-03-20T11:36:37;19.33;;;12.55;;
9815;SDS011;4947;44.526;11.360;2023-03-20T11:39:09;18.25;;;11.77;;
9815;SDS011;4947;44.526;11.360;2023-03-20T11:41:45;17.15;;;11.43;;
9815;SDS011;4947;44.526;11.360;2023-03-20T11:44:24;18.63;;;11.32;;
9815;SDS011;4947;44.526;11.360;2023-03-20T11:46:53;18.48;;;12.02;;
9815;SDS011;4947;44.526;11.360;2023-03-20T11:49:23;20.00;;;11.70;;
9815;SDS011;4947;44.526;11.360;2023-03-20T11:51:52;19.17;;;11.70;;
9815;SDS011;4947;44.526;11.360;2023-03-20T11:54:22;17.15;;;11.50;;
9815;SDS011;4947;44.526;11.360;2023-03-20T11:56:51;15.70;;;11.05;;
9815;SDS011;4947;44.526;11.360;2023-03-20T11:59:20;14.02;;;10.15;;
9815;SDS011;4947;44.526;11.360;2023-03-20T12:01:54;12.77;;;9.32;;
9815;SDS011;4947;44.526;11.360;2023-03-20T12:04:26;13.50;;;9.50;;
9815;SDS011;4947;44.526;11.360;2023-03-20T12:06:55;13.70;;;9.93;;
9815;SDS011;4947;44.526;11.360;2023-03-20T12:09:28;14.90;;;9.30;;
9815;SDS011;4947;44.526;11.360;2023-03-20T12:12:09;11.80;;;8.13;;
9815;SDS011;4947;44.526;11.360;2023-03-20T12:14:49;11.18;;;8.90;;
9815;SDS011;4947;44.526;11.360;2023-03-20T12:17:34;10.82;;;8.18;;
9815;SDS011;4947;44.526;11.360;2023-03-20T12:20:13;9.27;;;7.20;;
9815;SDS011;4947;44.526;11.360;2023-03-20T12:22:52;12.48;;;7.60;;
9815;SDS011;4947;44.526;11.360;2023-03-20T12:25:26;10.80;;;7.78;;
9815;SDS011;4947;44.526;11.360;2023-03-20T12:28:02;15.98;;;8.68;;
9815;SDS011;4947;44.526;11.360;2023-03-20T12:30:41;11.55;;;8.70;;
9815;SDS011;4947;44.526;11.360;2023-03-20T12:33:19;12.40;;;8.65;;
9815;SDS011;4947;44.526;11.360;2023-03-20T12:35:52;12.85;;;8.68;;
9815;SDS011;4947;44.526;11.360;2023-03-20T12:38:23;9.95;;;7.10;;
9815;SDS011;4947;44.526;11.360;2023-03-20T12:40:54;12.02;;;7.20;;
9815;SDS011;4947;44.526;11.360;2023-03-20T12:43:29;10.00;;;7.55;;
9815;SDS011;4947;44.526;11.360;2023-03-20T12:46:07;12.88;;;8.23;;
9815;SDS011;4947;44.526;11.360;2023-03-20T12:48:55;10.23;;;6.95;;
9815;SDS011;4947;44.526;11.360;2023-03-20T12:51:32;12.52;;;8.90;;
9815;SDS011;4947;44.526;11.360;2023-03-20T12:54:18;15.13;;;10.13;;
9815;SDS011;4947;44.526;11.360;2023-03-20T12:56:58;14.02;;;10.10;;
9815;SDS011;4947;44.526;11.360;2023-03-20T12:59:37;15.38;;;10.55;;
9815;SDS011;4947;44.526;11.360;2023-03-20T13:02:21;15.07;;;10.73;;
9815;SDS011;4947;44.526;11.360;2023-03-20T13:05:08;16.52;;;11.45;;
9815;SDS011;4947;44.526;11.360;2023-03-20T13:07:48;19.23;;;10.75;;
9815;SDS011;4947;44.526;11.360;2023-03-20T13:10:28;19.88;;;11.88;;
9815;SDS011;4947;44.526;11.360;2023-03-20T13:13:02;18.35;;;11.48;;
9815;SDS011;4947;44.526;11.360;2023-03-20T13:15:45;16.38;;;11.48;;
9815;SDS011;4947;44.526;11.360;2023-03-20T13:18:21;12.38;;;9.57;;
9815;SDS011;4947;44.526;11.360;2023-03-20T13:20:56;13.45;;;9.82;;
9815;SDS011;4947;44.526;11.360;2023-03-20T13:23:29;12.30;;;9.63;;
9815;SDS011;4947;44.526;11.360;2023-03-20T13:26:11;17.58;;;9.98;;
9815;SDS011;4947;44.526;11.360;2023-03-20T13:28:48;16.35;;;10.75;;
9815;SDS011;4947;44.526;11.360;2023-03-20T13:34:15;22.80;;;15.85;;
9815;SDS011;4947;44.526;11.360;2023-03-20T13:36:55;16.13;;;10.70;;
9815;SDS011;4947;44.526;11.360;2023-03-20T13:39:31;17.67;;;11.73;;
9815;SDS011;4947;44.526;11.360;2023-03-20T13:42:02;16.35;;;11.70;;
9815;SDS011;4947;44.526;11.360;2023-03-20T13:44:35;21.33;;;14.52;;
9815;SDS011;4947;44.526;11.360;2023-03-20T13:47:04;27.60;;;17.10;;
9815;SDS011;4947;44.526;11.360;2023-03-20T13:49:37;32.78;;;19.38;;
9815;SDS011;4947;44.526;11.360;2023-03-20T13:52:11;23.52;;;15.50;;
9815;SDS011;4947;44.526;11.360;2023-03-20T13:54:49;18.15;;;13.38;;
9815;SDS011;4947;44.526;11.360;2023-03-20T13:57:27;18.05;;;11.90;;
9815;SDS011;4947;44.526;11.360;2023-03-20T14:00:16;21.00;;;11.52;;
9815;SDS011;4947;44.526;11.360;2023-03-20T14:02:55;15.90;;;10.90;;
9815;SDS011;4947;44.526;11.360;2023-03-20T14:05:44;20.90;;;11.65;;
9815;SDS011;4947;44.526;11.360;2023-03-20T14:08:23;21.67;;;14.70;;
9815;SDS011;4947;44.526;11.360;2023-03-20T14:11:05;18.98;;;13.15;;
9815;SDS011;4947;44.526;11.360;2023-03-20T14:13:41;19.67;;;12.35;;
9815;SDS011;4947;44.526;11.360;2023-03-20T14:16:13;16.98;;;12.80;;
9815;SDS011;4947;44.526;11.360;2023-03-20T14:18:44;17.83;;;12.15;;
9815;SDS011;4947;44.526;11.360;2023-03-20T14:21:14;17.98;;;12.88;;
9815;SDS011;4947;44.526;11.360;2023-03-20T14:23:48;17.83;;;12.05;;
9815;SDS011;4947;44.526;11.360;2023-03-20T14:26:18;16.33;;;12.23;;
9815;SDS011;4947;44.526;11.360;2023-03-20T14:28:53;19.38;;;13.48;;
9815;SDS011;4947;44.526;11.360;2023-03-20T14:31:25;21.58;;;15.50;;
9815;SDS011;4947;44.526;11.360;2023-03-20T14:34:12;20.10;;;14.00;;
9815;SDS011;4947;44.526;11.360;2023-03-20T14:36:45;24.20;;;15.57;;
9815;SDS011;4947;44.526;11.360;2023-03-20T14:39:21;24.17;;;16.50;;
9815;SDS011;4947;44.526;11.360;2023-03-20T14:41:59;25.63;;;16.15;;
9815;SDS011;4947;44.526;11.360;2023-03-20T14:44:34;24.38;;;16.63;;
9815;SDS011;4947;44.526;11.360;2023-03-20T14:47:16;23.05;;;15.95;;
9815;SDS011;4947;44.526;11.360;2023-03-20T14:49:51;22.90;;;16.05;;
9815;SDS011;4947;44.526;11.360;2023-03-20T14:52:29;21.15;;;15.88;;
9815;SDS011;4947;44.526;11.360;2023-03-20T15:01:05;25.63;;;17.60;;
9815;SDS011;4947;44.526;11.360;2023-03-20T15:03:34;22.80;;;17.20;;
9815;SDS011;4947;44.526;11.360;2023-03-20T15:06:06;23.50;;;16.35;;
9815;SDS011;4947;44.526;11.360;2023-03-20T15:08:35;26.88;;;16.30;;
9815;SDS011;4947;44.526;11.360;2023-03-20T15:11:12;28.58;;;17.23;;
9815;SDS011;4947;44.526;11.360;2023-03-20T15:13:40;21.40;;;15.63;;
9815;SDS011;4947;44.526;11.360;2023-03-20T15:16:10;21.90;;;15.57;;
9815;SDS011;4947;44.526;11.360;2023-03-20T15:18:39;28.52;;;15.63;;